createdAt,value
2018-03-21T00:02:24.342Z,9.55
2018-03-21T00:04:52.854Z,9.57
2018-03-21T00:07:21.357Z,9.57
2018-03-21T00:09:49.851Z,9.61
2018-03-21T00:12:18.319Z,9.62
2018-03-21T00:14:46.814Z,9.53
2018-03-21T00:17:15.320Z,9.55
2018-03-21T00:19:43.794Z,9.52
2018-03-21T00:22:12.293Z,9.48
2018-03-21T00:24:40.794Z,9.47
2018-03-21T00:27:09.286Z,9.51
2018-03-21T00:29:37.818Z,9.55
2018-03-21T00:32:06.279Z,9.44
2018-03-21T00:34:34.810Z,9.52
2018-03-21T00:37:03.266Z,9.46
2018-03-21T00:39:31.758Z,9.54
2018-03-21T00:42:00.228Z,9.53
2018-03-21T00:44:28.725Z,9.53
2018-03-21T00:46:57.195Z,9.43
2018-03-21T00:49:25.707Z,9.47
2018-03-21T00:51:54.258Z,9.42
2018-03-21T00:54:22.725Z,9.31
2018-03-21T00:56:51.221Z,9.32
2018-03-21T00:59:19.673Z,9.34
2018-03-21T01:01:48.182Z,9.32
2018-03-21T01:04:16.642Z,9.39
2018-03-21T01:06:45.114Z,9.29
2018-03-21T01:09:13.581Z,9.17
2018-03-21T01:11:42.046Z,9.29
2018-03-21T01:14:10.554Z,9.25
2018-03-21T01:16:39.046Z,9.21
2018-03-21T01:19:07.515Z,9.15
2018-03-21T01:21:36.050Z,9.10
2018-03-21T01:24:04.570Z,9.13
2018-03-21T01:26:33.074Z,9.07
2018-03-21T01:29:01.551Z,9.08
2018-03-21T01:31:30.076Z,9.07
2018-03-21T01:33:58.541Z,9.10
2018-03-21T01:36:27.023Z,9.00
2018-03-21T01:38:55.547Z,9.09
2018-03-21T01:41:24.085Z,9.03
2018-03-21T01:43:52.662Z,9.08
2018-03-21T01:46:21.164Z,8.95
2018-03-21T01:48:49.670Z,9.00
2018-03-21T01:51:18.123Z,8.91
2018-03-21T01:53:47.596Z,8.80
2018-03-21T01:56:16.098Z,8.88
2018-03-21T01:58:44.574Z,8.84
2018-03-21T02:01:13.090Z,8.87
2018-03-21T02:03:41.559Z,8.81
2018-03-21T02:06:10.068Z,8.80
2018-03-21T02:08:38.546Z,8.84
2018-03-21T02:11:07.081Z,8.85
2018-03-21T02:13:35.565Z,8.80
2018-03-21T02:16:04.039Z,8.87
2018-03-21T02:18:32.538Z,8.80
2018-03-21T02:21:01.011Z,8.70
2018-03-21T02:23:29.505Z,8.77
2018-03-21T02:25:58.006Z,8.77
2018-03-21T02:28:26.514Z,8.71
2018-03-21T02:30:54.995Z,8.80
2018-03-21T02:33:23.450Z,8.84
2018-03-21T02:35:51.957Z,8.84
2018-03-21T02:38:20.445Z,8.87
2018-03-21T02:40:48.975Z,8.83
2018-03-21T02:43:17.670Z,8.93
2018-03-21T02:45:46.187Z,8.93
2018-03-21T02:48:14.671Z,8.96
2018-03-21T02:50:43.146Z,8.99
2018-03-21T02:53:11.645Z,9.04
2018-03-21T02:55:40.135Z,9.00
2018-03-21T02:58:08.595Z,8.90
2018-03-21T03:00:37.093Z,9.03
2018-03-21T03:03:05.606Z,9.06
2018-03-21T03:05:34.134Z,9.02
2018-03-21T03:08:02.639Z,8.98
2018-03-21T03:10:31.142Z,8.91
2018-03-21T03:12:59.688Z,8.96
2018-03-21T03:15:28.184Z,9.00
2018-03-21T03:17:56.695Z,9.02
2018-03-21T03:20:25.164Z,9.04
2018-03-21T03:22:53.618Z,9.08
2018-03-21T03:25:22.110Z,9.10
2018-03-21T03:27:50.614Z,9.06
2018-03-21T03:30:19.107Z,9.06
2018-03-21T03:32:47.593Z,9.05
2018-03-21T03:35:16.080Z,9.01
2018-03-21T03:37:44.598Z,9.02
2018-03-21T03:40:13.103Z,9.02
2018-03-21T03:42:41.597Z,8.96
2018-03-21T03:45:10.075Z,8.95
2018-03-21T03:47:38.549Z,8.90
2018-03-21T03:50:07.049Z,8.81
2018-03-21T03:52:35.521Z,8.73
2018-03-21T03:55:04.027Z,8.77
2018-03-21T03:57:32.628Z,8.73
2018-03-21T04:00:01.092Z,8.76
2018-03-21T04:02:29.630Z,8.67
2018-03-21T04:04:58.130Z,8.64
2018-03-21T04:07:26.648Z,8.81
2018-03-21T04:09:55.133Z,8.78
2018-03-21T04:12:23.620Z,8.74
2018-03-21T04:14:52.162Z,8.76
2018-03-21T04:17:20.619Z,8.78
2018-03-21T04:19:49.160Z,8.84
2018-03-21T04:22:17.746Z,8.86
2018-03-21T04:24:46.255Z,8.89
2018-03-21T04:27:14.727Z,8.87
2018-03-21T04:29:43.188Z,8.92
2018-03-21T04:32:11.726Z,8.88
2018-03-21T04:34:40.183Z,9.00
2018-03-21T04:37:08.692Z,8.99
2018-03-21T04:39:37.162Z,8.93
2018-03-21T04:42:05.682Z,8.97
2018-03-21T04:44:34.171Z,9.02
2018-03-21T04:47:02.690Z,9.01
2018-03-21T04:49:31.212Z,9.05
2018-03-21T04:51:59.709Z,9.03
2018-03-21T04:54:28.222Z,9.01
2018-03-21T04:56:56.738Z,9.12
2018-03-21T04:59:25.216Z,9.09
2018-03-21T05:01:53.739Z,9.07
2018-03-21T05:04:22.266Z,9.09
2018-03-21T05:06:50.758Z,9.07
2018-03-21T05:09:19.266Z,9.03
2018-03-21T05:11:47.737Z,9.12
2018-03-21T05:14:16.221Z,9.05
2018-03-21T05:16:44.739Z,8.90
2018-03-21T05:19:13.209Z,9.01
2018-03-21T05:21:41.722Z,8.82
2018-03-21T05:24:10.222Z,8.72
2018-03-21T05:26:38.683Z,8.74
2018-03-21T05:29:07.178Z,8.74
2018-03-21T05:31:35.678Z,8.73
2018-03-21T05:34:04.154Z,8.71
2018-03-21T05:36:32.764Z,8.67
2018-03-21T05:39:01.226Z,8.62
2018-03-21T05:41:29.706Z,8.60
2018-03-21T05:43:58.213Z,8.52
2018-03-21T05:46:26.718Z,8.56
2018-03-21T05:48:55.246Z,8.46
2018-03-21T05:51:23.718Z,8.43
2018-03-21T05:53:52.224Z,8.48
2018-03-21T05:56:20.696Z,8.30
2018-03-21T05:58:49.202Z,8.47
2018-03-21T06:01:17.705Z,8.58
2018-03-21T06:03:46.166Z,8.69
2018-03-21T06:06:14.686Z,8.76
2018-03-21T06:08:43.188Z,8.72
2018-03-21T06:11:11.703Z,8.74
2018-03-21T06:13:40.191Z,8.72
2018-03-21T06:16:08.694Z,8.69
2018-03-21T06:18:37.226Z,8.68
2018-03-21T06:21:05.750Z,8.66
2018-03-21T06:23:34.224Z,8.57
2018-03-21T06:26:02.738Z,8.70
2018-03-21T06:28:31.202Z,8.74
2018-03-21T06:30:59.675Z,8.55
2018-03-21T06:33:28.182Z,8.61
2018-03-21T06:35:56.661Z,8.61
2018-03-21T06:38:25.117Z,8.74
2018-03-21T06:40:53.689Z,8.81
2018-03-21T06:43:22.155Z,8.74
2018-03-21T06:45:50.662Z,8.88
2018-03-21T06:48:19.194Z,8.90
2018-03-21T06:50:47.730Z,8.86
2018-03-21T06:53:16.238Z,8.88
2018-03-21T06:55:44.781Z,8.86
2018-03-21T06:58:13.243Z,8.77
2018-03-21T07:00:41.713Z,8.74
2018-03-21T07:03:10.233Z,8.67
2018-03-21T07:05:38.749Z,8.76
2018-03-21T07:08:07.299Z,8.61
2018-03-21T07:10:35.825Z,8.33
2018-03-21T07:13:04.290Z,8.59
2018-03-21T07:15:44.446Z,8.70
2018-03-21T07:18:12.942Z,8.54
2018-03-21T07:20:41.458Z,8.57
2018-03-21T07:23:10.018Z,8.60
2018-03-21T07:25:38.560Z,8.57
2018-03-21T07:28:07.127Z,8.68
2018-03-21T07:30:35.684Z,8.63
2018-03-21T07:33:04.170Z,8.69
2018-03-21T07:35:32.638Z,8.77
2018-03-21T07:38:01.146Z,8.90
2018-03-21T07:40:29.657Z,8.84
2018-03-21T07:42:58.238Z,8.96
2018-03-21T07:45:26.707Z,9.06
2018-03-21T07:47:55.205Z,9.10
2018-03-21T07:50:23.727Z,9.14
2018-03-21T07:52:52.194Z,9.01
2018-03-21T07:55:20.713Z,9.15
2018-03-21T07:57:49.185Z,9.14
2018-03-21T08:00:17.715Z,9.23
2018-03-21T08:02:46.179Z,9.27
2018-03-21T08:05:14.673Z,9.26
2018-03-21T08:07:43.170Z,9.32
2018-03-21T08:10:11.643Z,9.36
2018-03-21T08:12:41.055Z,9.51
2018-03-21T08:15:09.551Z,9.59
2018-03-21T08:17:38.058Z,9.52
2018-03-21T08:20:06.564Z,9.47
2018-03-21T08:22:35.110Z,9.59
2018-03-21T08:25:03.686Z,9.64
2018-03-21T08:27:32.189Z,9.60
2018-03-21T08:30:00.703Z,9.71
2018-03-21T08:32:29.170Z,9.69
2018-03-21T08:34:57.672Z,9.63
2018-03-21T08:37:26.154Z,9.71
2018-03-21T08:39:54.690Z,9.83
2018-03-21T08:42:23.186Z,9.84
2018-03-21T08:44:51.723Z,9.97
2018-03-21T08:47:20.296Z,10.02
2018-03-21T08:49:48.802Z,10.08
2018-03-21T08:52:17.307Z,10.13
2018-03-21T08:54:45.774Z,10.08
2018-03-21T08:57:14.286Z,10.26
2018-03-21T08:59:42.782Z,10.36
2018-03-21T09:02:11.298Z,10.42
2018-03-21T09:04:39.835Z,10.44
2018-03-21T09:07:08.374Z,10.43
2018-03-21T09:09:36.920Z,10.34
2018-03-21T09:12:05.440Z,10.31
2018-03-21T09:14:33.963Z,10.29
2018-03-21T09:17:02.466Z,10.36
2018-03-21T09:19:30.934Z,10.29
2018-03-21T09:21:59.430Z,10.42
2018-03-21T09:24:27.966Z,10.48
2018-03-21T09:26:56.514Z,10.49
2018-03-21T09:29:24.988Z,10.47
2018-03-21T09:31:53.516Z,10.49
2018-03-21T09:34:22.010Z,10.64
2018-03-21T09:36:50.530Z,10.65
2018-03-21T09:39:19.068Z,10.68
2018-03-21T09:41:47.627Z,10.62
2018-03-21T09:44:16.212Z,10.60
2018-03-21T09:46:44.757Z,10.62
2018-03-21T09:49:13.278Z,10.64
2018-03-21T09:51:41.742Z,10.46
2018-03-21T09:54:10.284Z,10.54
2018-03-21T09:56:38.830Z,10.84
2018-03-21T09:59:07.309Z,10.78
2018-03-21T10:01:35.822Z,10.91
2018-03-21T10:04:04.330Z,10.84
2018-03-21T10:06:32.902Z,10.69
2018-03-21T10:09:01.415Z,11.00
2018-03-21T10:11:29.922Z,11.10
2018-03-21T10:13:58.418Z,11.08
2018-03-21T10:16:26.882Z,11.12
2018-03-21T10:18:55.390Z,11.01
2018-03-21T10:21:23.894Z,11.27
2018-03-21T10:23:52.362Z,11.30
2018-03-21T10:26:20.882Z,11.36
2018-03-21T10:28:49.382Z,11.39
2018-03-21T10:31:17.897Z,11.54
2018-03-21T10:33:46.378Z,11.64
2018-03-21T10:36:14.902Z,11.65
2018-03-21T10:38:43.433Z,11.78
2018-03-21T10:41:11.954Z,11.95
2018-03-21T10:43:40.511Z,12.19
2018-03-21T10:46:08.986Z,12.31
2018-03-21T10:48:37.462Z,12.33
2018-03-21T10:51:06.034Z,12.43
2018-03-21T10:53:34.494Z,12.58
2018-03-21T10:56:03.003Z,12.66
2018-03-21T10:58:31.595Z,12.47
2018-03-21T11:01:00.090Z,12.52
2018-03-21T11:03:28.608Z,12.66
2018-03-21T11:05:57.173Z,12.61
2018-03-21T11:08:25.698Z,12.52
2018-03-21T11:10:54.161Z,12.29
2018-03-21T11:13:22.685Z,12.32
2018-03-21T11:15:51.149Z,12.26
2018-03-21T11:18:20.228Z,12.09
2018-03-21T11:20:48.737Z,12.00
2018-03-21T11:23:17.206Z,12.04
2018-03-21T11:25:45.714Z,11.93
2018-03-21T11:28:14.225Z,12.03
2018-03-21T11:30:42.698Z,12.08
2018-03-21T11:33:11.200Z,11.99
2018-03-21T11:35:39.710Z,11.97
2018-03-21T11:38:08.239Z,12.01
2018-03-21T11:40:36.725Z,11.96
2018-03-21T11:43:05.249Z,11.96
2018-03-21T11:45:33.746Z,11.97
2018-03-21T11:48:02.246Z,11.62
2018-03-21T11:50:30.863Z,11.65
2018-03-21T11:52:59.378Z,11.66
2018-03-21T11:55:27.887Z,11.56
2018-03-21T11:57:56.371Z,11.35
2018-03-21T12:00:24.860Z,11.28
2018-03-21T12:02:53.381Z,11.25
2018-03-21T12:05:21.875Z,11.36
2018-03-21T12:07:50.434Z,11.34
2018-03-21T12:10:18.907Z,11.36
2018-03-21T12:12:47.408Z,11.30
2018-03-21T12:15:15.917Z,11.32
2018-03-21T12:17:44.428Z,11.49
2018-03-21T12:20:12.915Z,11.42
2018-03-21T12:22:41.390Z,11.46
2018-03-21T12:25:09.906Z,11.61
2018-03-21T12:27:38.411Z,11.59
2018-03-21T12:30:07.598Z,11.83
2018-03-21T12:32:36.162Z,12.00
2018-03-21T12:35:04.668Z,12.00
2018-03-21T12:37:33.230Z,12.05
2018-03-21T12:40:01.717Z,12.16
2018-03-21T12:42:30.230Z,12.16
2018-03-21T12:44:58.754Z,12.53
2018-03-21T12:47:27.217Z,12.76
2018-03-21T12:49:55.876Z,12.92
2018-03-21T12:52:24.334Z,13.07
2018-03-21T12:54:52.858Z,13.28
2018-03-21T12:57:21.350Z,13.31
2018-03-21T12:59:49.834Z,13.27
2018-03-21T13:02:18.358Z,13.68
2018-03-21T13:04:46.826Z,13.83
2018-03-21T13:07:15.337Z,13.81
2018-03-21T13:09:43.803Z,13.91
2018-03-21T13:12:12.267Z,14.07
2018-03-21T13:14:40.772Z,14.08
2018-03-21T13:17:09.245Z,14.09
2018-03-21T13:19:37.770Z,14.03
2018-03-21T13:22:06.260Z,14.02
2018-03-21T13:24:34.726Z,14.07
2018-03-21T13:27:03.238Z,14.02
2018-03-21T13:29:31.760Z,14.06
2018-03-21T13:32:00.262Z,14.04
2018-03-21T13:34:28.829Z,14.23
2018-03-21T13:36:57.357Z,14.13
2018-03-21T13:39:25.863Z,14.12
2018-03-21T13:41:54.488Z,13.99
2018-03-21T13:44:22.987Z,14.07
2018-03-21T13:46:51.511Z,14.05
2018-03-21T13:49:19.987Z,13.93
2018-03-21T13:51:48.470Z,14.00
2018-03-21T13:54:16.999Z,14.02
2018-03-21T13:56:46.390Z,13.83
2018-03-21T13:59:14.868Z,13.95
2018-03-21T14:01:43.379Z,14.06
2018-03-21T14:04:11.882Z,14.00
2018-03-21T14:06:40.366Z,14.24
2018-03-21T14:09:08.870Z,14.25
2018-03-21T14:11:37.395Z,14.34
2018-03-21T14:14:05.968Z,14.44
2018-03-21T14:16:34.494Z,14.29
2018-03-21T14:19:03.025Z,14.26
2018-03-21T14:21:31.539Z,14.09
2018-03-21T14:24:00.022Z,14.17
2018-03-21T14:26:28.541Z,14.17
2018-03-21T14:28:57.005Z,14.05
2018-03-21T14:31:25.569Z,14.13
2018-03-21T14:33:54.034Z,14.17
2018-03-21T14:36:22.536Z,14.16
2018-03-21T14:38:50.998Z,13.98
2018-03-21T14:41:19.518Z,14.12
2018-03-21T14:43:47.982Z,14.18
2018-03-21T14:46:16.518Z,14.09
2018-03-21T14:48:44.990Z,13.98
2018-03-21T14:51:13.525Z,14.09
2018-03-21T14:53:42.062Z,14.10
2018-03-21T14:56:10.582Z,14.10
2018-03-21T14:58:39.094Z,14.11
2018-03-21T15:01:07.597Z,14.06
2018-03-21T15:03:36.126Z,13.96
2018-03-21T15:06:04.638Z,14.01
2018-03-21T15:08:33.352Z,13.86
2018-03-21T15:11:01.829Z,13.86
2018-03-21T15:13:30.341Z,13.84
2018-03-21T15:15:58.846Z,13.68
2018-03-21T15:18:27.317Z,13.81
2018-03-21T15:20:55.866Z,13.85
2018-03-21T15:23:24.404Z,13.82
2018-03-21T15:25:52.935Z,13.80
2018-03-21T15:28:21.450Z,13.70
2018-03-21T15:30:49.975Z,13.68
2018-03-21T15:33:18.538Z,13.60
2018-03-21T15:35:47.042Z,13.52
2018-03-21T15:38:15.514Z,13.46
2018-03-21T15:40:44.014Z,13.46
2018-03-21T15:43:12.474Z,13.46
2018-03-21T15:45:40.986Z,13.44
2018-03-21T15:48:09.454Z,13.47
2018-03-21T15:50:37.958Z,13.40
2018-03-21T15:53:06.419Z,13.41
2018-03-21T15:55:34.973Z,13.37
2018-03-21T15:58:03.426Z,13.29
2018-03-21T16:00:31.934Z,13.14
2018-03-21T16:03:00.405Z,13.15
2018-03-21T16:05:28.916Z,13.08
2018-03-21T16:07:57.420Z,13.05
2018-03-21T16:10:25.887Z,13.05
2018-03-21T16:12:54.395Z,12.97
2018-03-21T16:15:22.866Z,12.93
2018-03-21T16:17:51.351Z,12.89
2018-03-21T16:20:19.858Z,12.79
2018-03-21T16:22:48.321Z,12.75
2018-03-21T16:25:16.838Z,12.67
2018-03-21T16:27:45.298Z,12.63
2018-03-21T16:30:13.758Z,12.55
2018-03-21T16:32:42.223Z,12.38
2018-03-21T16:35:10.761Z,12.35
2018-03-21T16:37:39.266Z,12.43
2018-03-21T16:40:07.816Z,12.45
2018-03-21T16:42:36.292Z,12.41
2018-03-21T16:45:04.770Z,12.39
2018-03-21T16:47:33.276Z,12.28
2018-03-21T16:50:01.733Z,12.24
2018-03-21T16:52:30.233Z,12.19
2018-03-21T16:54:58.730Z,12.17
2018-03-21T16:57:27.326Z,12.05
2018-03-21T16:59:55.804Z,12.08
2018-03-21T17:02:24.266Z,12.03
2018-03-21T17:04:52.770Z,11.89
2018-03-21T17:07:21.234Z,11.94
2018-03-21T17:09:49.738Z,11.82
2018-03-21T17:12:18.240Z,11.90
2018-03-21T17:14:46.705Z,11.89
2018-03-21T17:17:15.210Z,11.82
2018-03-21T17:19:43.714Z,11.81
2018-03-21T17:22:12.227Z,11.61
2018-03-21T17:24:40.686Z,11.66
2018-03-21T17:27:09.192Z,11.57
2018-03-21T17:29:37.696Z,11.57
2018-03-21T17:32:06.173Z,11.62
2018-03-21T17:34:34.656Z,11.58
2018-03-21T17:37:03.162Z,11.57
2018-03-21T17:39:31.639Z,11.48
2018-03-21T17:42:00.147Z,11.51
2018-03-21T17:44:28.714Z,11.44
2018-03-21T17:46:57.210Z,11.43
2018-03-21T17:49:25.711Z,11.38
2018-03-21T17:51:54.175Z,11.41
2018-03-21T17:54:22.670Z,11.37
2018-03-21T17:56:51.144Z,11.37
2018-03-21T17:59:19.642Z,11.30
2018-03-21T18:01:48.118Z,11.32
2018-03-21T18:04:16.673Z,11.28
2018-03-21T18:06:45.125Z,11.26
2018-03-21T18:09:13.626Z,11.27
2018-03-21T18:11:42.090Z,11.26
2018-03-21T18:14:10.605Z,11.27
2018-03-21T18:16:39.079Z,11.23
2018-03-21T18:19:07.588Z,11.22
2018-03-21T18:21:36.060Z,11.18
2018-03-21T18:24:04.574Z,11.16
2018-03-21T18:26:33.038Z,11.13
2018-03-21T18:29:01.542Z,11.10
2018-03-21T18:31:30.038Z,11.03
2018-03-21T18:33:58.538Z,11.03
2018-03-21T18:36:27.046Z,11.02
2018-03-21T18:38:55.514Z,11.08
2018-03-21T18:41:24.024Z,11.06
2018-03-21T18:43:52.500Z,11.04
2018-03-21T18:46:20.999Z,11.02
2018-03-21T18:48:49.460Z,10.96
2018-03-21T18:51:18.004Z,10.87
2018-03-21T18:53:46.509Z,10.97
2018-03-21T18:56:14.966Z,11.01
2018-03-21T18:58:43.466Z,10.99
2018-03-21T19:01:11.966Z,10.96
2018-03-21T19:03:40.473Z,10.99
2018-03-21T19:06:08.982Z,10.98
2018-03-21T19:08:37.501Z,10.97
2018-03-21T19:11:05.998Z,10.95
2018-03-21T19:13:34.518Z,10.95
2018-03-21T19:16:02.986Z,10.91
2018-03-21T19:18:31.450Z,10.90
2018-03-21T19:20:59.951Z,10.86
2018-03-21T19:23:28.414Z,10.92
2018-03-21T19:25:56.921Z,10.90
2018-03-21T19:28:25.418Z,10.89
2018-03-21T19:30:53.881Z,10.91
2018-03-21T19:33:22.386Z,10.92
2018-03-21T19:35:50.854Z,10.89
2018-03-21T19:38:20.160Z,10.89
2018-03-21T19:40:48.623Z,10.90
2018-03-21T19:43:17.160Z,10.88
2018-03-21T19:45:45.943Z,10.82
2018-03-21T19:48:14.431Z,10.75
2018-03-21T19:50:42.942Z,10.81
2018-03-21T19:53:11.405Z,10.81
2018-03-21T19:55:39.924Z,10.84
2018-03-21T19:58:08.438Z,10.74
2018-03-21T20:00:36.941Z,10.56
2018-03-21T20:03:05.410Z,10.63
2018-03-21T20:05:33.919Z,10.70
2018-03-21T20:08:02.472Z,10.69
2018-03-21T20:10:30.946Z,10.73
2018-03-21T20:12:59.406Z,10.87
2018-03-21T20:15:27.907Z,10.91
2018-03-21T20:17:56.406Z,10.89
2018-03-21T20:20:24.914Z,10.92
2018-03-21T20:22:53.414Z,10.85
2018-03-21T20:25:21.870Z,10.69
2018-03-21T20:27:50.343Z,10.67
2018-03-21T20:30:18.858Z,10.66
2018-03-21T20:32:47.314Z,10.29
2018-03-21T20:35:15.774Z,10.25
2018-03-21T20:37:44.270Z,10.32
2018-03-21T20:40:12.785Z,10.42
2018-03-21T20:42:41.300Z,10.29
2018-03-21T20:45:09.844Z,10.26
2018-03-21T20:47:38.374Z,10.17
2018-03-21T20:50:06.850Z,10.16
2018-03-21T20:52:35.354Z,10.16
2018-03-21T20:55:03.870Z,10.11
2018-03-21T20:57:32.330Z,10.00
2018-03-21T21:00:00.854Z,9.96
2018-03-21T21:02:29.367Z,10.10
2018-03-21T21:04:57.843Z,10.04
2018-03-21T21:07:26.342Z,9.97
2018-03-21T21:09:54.808Z,9.95
2018-03-21T21:12:23.318Z,9.91
2018-03-21T21:14:51.807Z,9.99
2018-03-21T21:17:20.262Z,9.98
2018-03-21T21:19:48.754Z,10.05
2018-03-21T21:22:17.294Z,9.86
2018-03-21T21:24:45.750Z,9.93
2018-03-21T21:27:14.226Z,9.72
2018-03-21T21:29:42.736Z,9.68
2018-03-21T21:32:11.232Z,9.57
2018-03-21T21:34:39.698Z,9.65
2018-03-21T21:37:08.194Z,9.53
2018-03-21T21:39:36.704Z,9.54
2018-03-21T21:42:05.183Z,9.67
2018-03-21T21:44:33.677Z,9.60
2018-03-21T21:47:02.146Z,9.51
2018-03-21T21:49:30.646Z,9.63
2018-03-21T21:51:59.110Z,9.60
2018-03-21T21:54:27.614Z,9.52
2018-03-21T21:56:56.075Z,9.60
2018-03-21T21:59:24.557Z,9.60
2018-03-21T22:01:53.053Z,9.57
2018-03-21T22:04:21.536Z,9.44
2018-03-21T22:06:50.054Z,9.54
2018-03-21T22:09:18.522Z,9.44
2018-03-21T22:11:46.994Z,9.34
2018-03-21T22:14:15.498Z,9.47
2018-03-21T22:16:44.006Z,9.31
2018-03-21T22:19:12.475Z,9.30
2018-03-21T22:21:40.926Z,9.47
2018-03-21T22:24:09.418Z,9.26
2018-03-21T22:26:37.902Z,9.23
2018-03-21T22:29:06.398Z,9.23
2018-03-21T22:31:34.900Z,9.21
2018-03-21T22:34:03.369Z,8.97
2018-03-21T22:36:31.861Z,8.87
2018-03-21T22:39:00.483Z,8.90
2018-03-21T22:41:28.957Z,9.02
2018-03-21T22:43:57.425Z,8.88
2018-03-21T22:46:25.926Z,8.99
2018-03-21T22:48:54.389Z,8.83
2018-03-21T22:51:22.854Z,8.93
2018-03-21T22:53:51.302Z,8.93
2018-03-21T22:56:19.757Z,8.80
2018-03-21T22:58:48.258Z,8.75
2018-03-21T23:01:16.721Z,8.75
2018-03-21T23:03:45.258Z,8.89
2018-03-21T23:06:13.758Z,8.67
2018-03-21T23:08:42.267Z,8.76
2018-03-21T23:11:10.742Z,8.81
2018-03-21T23:13:39.241Z,8.81
2018-03-21T23:16:07.720Z,8.77
2018-03-21T23:18:36.223Z,8.71
2018-03-21T23:21:04.753Z,8.70
2018-03-21T23:23:33.222Z,8.67
2018-03-21T23:26:01.737Z,8.71
2018-03-21T23:28:30.241Z,8.67
2018-03-21T23:30:58.749Z,8.61
2018-03-21T23:33:27.206Z,8.43
2018-03-21T23:35:55.711Z,8.71
2018-03-21T23:38:24.182Z,8.69
2018-03-21T23:40:52.653Z,8.62
2018-03-21T23:43:21.153Z,8.59
2018-03-21T23:45:49.656Z,8.71
2018-03-21T23:48:18.170Z,8.71
2018-03-21T23:50:46.694Z,8.72
2018-03-21T23:53:15.199Z,8.67
2018-03-21T23:55:43.658Z,8.53
2018-03-21T23:58:12.168Z,8.60
